createdAt,value
2023-04-27T00:07:22.479Z,61.62
2023-04-27T00:17:26.260Z,61.92
2023-04-27T00:27:30.285Z,62.20
2023-04-27T00:37:33.956Z,62.36
2023-04-27T00:47:38.026Z,62.70
2023-04-27T00:57:41.672Z,62.93
2023-04-27T01:07:45.670Z,62.86
2023-04-27T01:17:49.668Z,63.33
2023-04-27T01:27:53.841Z,63.71
2023-04-27T01:37:57.560Z,63.83
2023-04-27T01:48:01.526Z,64.13
2023-04-27T01:58:05.684Z,64.23
2023-04-27T02:08:09.561Z,64.49
2023-04-27T02:18:13.611Z,64.84
2023-04-27T02:28:17.357Z,64.97
2023-04-27T02:38:22.365Z,65.05
2023-04-27T02:48:26.332Z,65.32
2023-04-27T02:58:30.479Z,65.54
2023-04-27T03:08:34.468Z,65.85
2023-04-27T03:18:38.780Z,66.18
2023-04-27T03:28:42.831Z,66.22
2023-04-27T03:38:46.554Z,66.57
2023-04-27T03:48:50.274Z,66.80
2023-04-27T03:58:54.268Z,66.97
2023-04-27T04:08:58.351Z,67.16
2023-04-27T04:19:02.027Z,66.72
2023-04-27T04:29:06.210Z,66.20
2023-04-27T04:39:09.902Z,65.49
2023-04-27T04:49:13.812Z,64.52
2023-04-27T04:59:17.688Z,64.25
2023-04-27T05:09:21.429Z,63.60
2023-04-27T05:19:25.011Z,62.68
2023-04-27T05:29:28.833Z,61.70
2023-04-27T05:39:32.782Z,61.26
2023-04-27T05:49:37.031Z,59.66
2023-04-27T05:59:41.131Z,57.83
2023-04-27T06:09:45.380Z,56.75
2023-04-27T06:19:49.599Z,55.61
2023-04-27T06:29:53.200Z,54.98
2023-04-27T06:39:57.226Z,53.61
2023-04-27T06:50:01.082Z,52.05
2023-04-27T07:00:06.788Z,51.54
2023-04-27T07:10:09.683Z,50.31
2023-04-27T07:20:13.782Z,49.34
2023-04-27T07:30:17.845Z,49.71
2023-04-27T07:40:21.977Z,48.42
2023-04-27T07:50:25.540Z,47.77
2023-04-27T08:00:29.655Z,48.85
2023-04-27T08:10:33.576Z,47.79
2023-04-27T08:20:37.400Z,47.86
2023-04-27T08:30:42.981Z,47.36
2023-04-27T08:40:46.871Z,46.82
2023-04-27T08:50:52.977Z,46.83
2023-04-27T09:00:56.807Z,46.79
2023-04-27T09:11:00.885Z,46.36
2023-04-27T09:21:06.343Z,47.25
2023-04-27T09:31:11.993Z,47.25
2023-04-27T09:41:16.976Z,46.68
2023-04-27T09:51:20.948Z,46.11
2023-04-27T10:01:25.033Z,46.92
2023-04-27T10:11:38.456Z,46.81
2023-04-27T10:21:51.805Z,46.48
2023-04-27T10:31:56.355Z,46.21
2023-04-27T10:42:00.637Z,46.12
2023-04-27T10:52:04.617Z,45.64
2023-04-27T11:02:08.448Z,43.56
2023-04-27T11:12:13.894Z,44.13
2023-04-27T11:22:18.082Z,44.32
2023-04-27T11:32:23.364Z,44.73
2023-04-27T11:42:29.011Z,44.43
2023-04-27T11:52:35.442Z,44.74
2023-04-27T12:02:39.473Z,43.70
2023-04-27T12:12:44.063Z,43.77
2023-04-27T12:22:47.944Z,43.78
2023-04-27T12:32:51.760Z,44.02
2023-04-27T12:42:55.079Z,44.74
2023-04-27T12:52:59.484Z,45.98
2023-04-27T13:03:03.514Z,46.23
2023-04-27T13:13:07.758Z,45.94
2023-04-27T13:23:12.492Z,45.87
2023-04-27T13:33:23.039Z,46.41
2023-04-27T13:43:27.296Z,46.67
2023-04-27T13:53:31.120Z,46.51
2023-04-27T14:03:35.144Z,45.88
2023-04-27T14:13:39.549Z,45.19
2023-04-27T14:23:54.615Z,44.87
2023-04-27T15:35:37.110Z,45.62
2023-04-27T15:45:40.798Z,45.78
2023-04-27T15:55:45.280Z,45.88
2023-04-27T16:05:49.446Z,45.96
2023-04-27T16:15:53.034Z,46.22
2023-04-27T16:26:00.658Z,46.57
2023-04-27T16:36:04.910Z,46.92
2023-04-27T16:46:10.701Z,47.19
2023-04-27T16:56:15.610Z,47.31
2023-04-27T17:06:22.680Z,46.99
2023-04-27T17:16:26.444Z,47.05
2023-04-27T17:26:32.222Z,47.29
2023-04-27T17:36:40.180Z,47.52
2023-04-27T17:46:45.173Z,47.97
2023-04-27T17:56:49.553Z,48.44
2023-04-27T18:06:53.657Z,48.87
2023-04-27T18:16:57.561Z,49.31
2023-04-27T18:27:01.254Z,50.12
2023-04-27T18:37:04.860Z,50.93
2023-04-27T18:47:08.930Z,51.75
2023-04-27T18:57:12.591Z,52.46
2023-04-27T19:07:16.761Z,53.14
2023-04-27T19:17:20.441Z,53.53
2023-04-27T19:27:24.287Z,54.25
2023-04-27T19:37:27.137Z,54.79
2023-04-27T19:47:34.673Z,55.42
2023-04-27T19:57:38.432Z,56.01
2023-04-27T20:07:42.205Z,56.62
2023-04-27T20:17:45.803Z,57.03
2023-04-27T20:27:53.621Z,57.48
2023-04-27T20:37:57.465Z,58.14
2023-04-27T20:48:01.068Z,58.68
2023-04-27T20:58:04.858Z,59.21
2023-04-27T21:08:08.609Z,59.35
2023-04-27T21:18:28.965Z,59.67
2023-04-27T21:28:34.235Z,60.10
2023-04-27T21:38:37.974Z,60.41
2023-04-27T21:48:42.084Z,60.36
2023-04-27T21:58:45.865Z,60.54
2023-04-27T22:08:53.905Z,60.61
2023-04-27T22:18:57.452Z,60.71
2023-04-27T22:29:01.128Z,60.78
2023-04-27T22:39:04.250Z,61.01
2023-04-27T22:49:07.831Z,61.31
2023-04-27T22:59:11.845Z,61.30
2023-04-27T23:09:16.112Z,61.48
2023-04-27T23:19:23.536Z,61.77
2023-04-27T23:29:27.365Z,61.92
2023-04-27T23:39:31.201Z,62.06
2023-04-27T23:49:34.493Z,62.40
2023-04-27T23:59:41.530Z,62.88
